Time;durP1;ratioP1;P1;durP2;ratioP2;P2;SDS_P1;SDS_P2;PMS_P1;PMS_P2;Temp;Humidity;BMP_temperature;BMP_pressure;BME280_temperature;BME280_humidity;BME280_pressure;Samples;Min_cycle;Max_cycle;Signal;HPM_P1;HPM_P2
2020/12/30 00:02:11;;;;;;;26.10;6.90;;;27.90;79.90;;;;;;6022805;23;19995;-89
2020/12/30 00:05:00;;;;;;;24.38;5.72;;;27.90;80.30;;;;;;6076636;23;20026;-89
2020/12/30 00:08:04;;;;;;;22.20;4.10;;;27.90;79.70;;;;;;6083860;23;20212;-88
2020/12/30 00:11:06;;;;;;;20.45;4.57;;;27.80;80.70;;;;;;6058469;23;20013;-87
2020/12/30 00:13:57;;;;;;;19.52;4.88;;;27.70;81.10;;;;;;6081215;23;20314;-87
2020/12/30 00:16:32;;;;;;;22.05;5.72;;;27.80;80.60;;;;;;6081751;23;20303;-89
2020/12/30 00:19:00;;;;;;;28.08;6.13;;;27.80;81.70;;;;;;6055038;23;19999;-88
2020/12/30 00:21:30;;;;;;;26.10;6.93;;;27.80;80.80;;;;;;6038227;23;20006;-87
2020/12/30 00:23:59;;;;;;;29.63;7.25;;;27.80;81.10;;;;;;6057529;23;20058;-87
2020/12/30 00:26:32;;;;;;;19.08;6.13;;;27.80;81.20;;;;;;6086967;23;19999;-87
2020/12/30 00:29:10;;;;;;;21.33;5.72;;;27.90;80.90;;;;;;6072791;23;20003;-89
2020/12/30 00:31:37;;;;;;;14.15;4.72;;;27.80;81.20;;;;;;6078147;23;20133;-89
2020/12/30 00:34:04;;;;;;;14.43;3.80;;;27.80;80.80;;;;;;6079890;23;19999;-89
2020/12/30 00:36:40;;;;;;;11.57;3.40;;;27.80;80.60;;;;;;6083412;23;20199;-89
2020/12/30 00:39:13;;;;;;;8.88;3.10;;;27.80;81.30;;;;;;6082080;23;20010;-89
2020/12/30 00:41:41;;;;;;;13.07;3.90;;;27.70;81.00;;;;;;6033700;23;20007;-88
2020/12/30 00:44:16;;;;;;;10.02;4.20;;;27.60;81.70;;;;;;6060009;23;19994;-88
2020/12/30 00:46:43;;;;;;;7.50;3.95;;;27.60;80.70;;;;;;6084132;23;20003;-89
2020/12/30 00:49:15;;;;;;;8.63;3.05;;;27.60;81.70;;;;;;6091149;23;20290;-89
2020/12/30 00:51:41;;;;;;;5.93;2.92;;;27.50;81.70;;;;;;6111204;23;20002;-90
2020/12/30 00:54:08;;;;;;;6.30;3.05;;;27.50;81.60;;;;;;6085229;23;19999;-89
2020/12/30 00:56:38;;;;;;;4.20;1.90;;;27.50;83.30;;;;;;6087641;23;20010;-90
2020/12/30 00:59:57;;;;;;;6.63;2.13;;;27.50;82.10;;;;;;6085083;23;20073;-90
2020/12/30 01:02:23;;;;;;;4.43;2.58;;;27.40;82.30;;;;;;6094561;23;19994;-90
2020/12/30 01:04:50;;;;;;;9.88;2.78;;;27.50;82.60;;;;;;6070063;23;20022;-89
2020/12/30 01:07:27;;;;;;;11.18;3.03;;;27.40;82.80;;;;;;6031360;23;20053;-89
2020/12/30 01:10:01;;;;;;;34.03;5.50;;;27.30;81.30;;;;;;6035451;23;19991;-92
2020/12/30 01:13:07;;;;;;;41.97;5.68;;;27.30;82.40;;;;;;6036046;23;20233;-90
2020/12/30 01:16:18;;;;;;;24.08;4.45;;;27.40;81.30;;;;;;5950131;24;20225;-90
2020/12/30 01:21:55;;;;;;;13.57;2.92;;;27.50;82.00;;;;;;6108728;23;20029;-87
2020/12/30 01:24:27;;;;;;;3.42;2.20;;;27.50;80.80;;;;;;6115592;23;20006;-88
2020/12/30 01:26:57;;;;;;;6.90;2.28;;;27.50;82.00;;;;;;6091899;23;19998;-89
2020/12/30 01:29:25;;;;;;;6.85;2.40;;;27.30;82.30;;;;;;6118051;23;20006;-89
2020/12/30 01:31:55;;;;;;;6.32;2.90;;;27.20;81.70;;;;;;6115468;23;20002;-90
2020/12/30 01:34:22;;;;;;;7.72;3.08;;;27.30;81.40;;;;;;6066469;23;20275;-89
2020/12/30 01:37:14;;;;;;;10.32;3.15;;;27.40;82.70;;;;;;6092060;23;20018;-89
2020/12/30 01:39:44;;;;;;;9.88;3.83;;;27.40;82.50;;;;;;6049862;23;20038;-91
2020/12/30 01:42:19;;;;;;;9.23;3.25;;;27.30;81.90;;;;;;6115036;23;20001;-91
2020/12/30 01:44:49;;;;;;;6.43;2.20;;;27.30;82.30;;;;;;6067229;23;20002;-90
2020/12/30 01:47:17;;;;;;;6.68;2.83;;;27.10;82.50;;;;;;6091203;23;20009;-90
2020/12/30 01:49:52;;;;;;;4.50;2.22;;;27.20;81.90;;;;;;6088191;23;20030;-88
2020/12/30 01:52:21;;;;;;;4.57;2.10;;;27.20;81.90;;;;;;6085874;23;20003;-90
2020/12/30 01:54:52;;;;;;;4.78;2.05;;;27.20;81.60;;;;;;6091260;23;19989;-90
2020/12/30 01:57:25;;;;;;;7.93;3.05;;;27.10;81.60;;;;;;6088221;23;19998;-92
2020/12/30 01:59:56;;;;;;;8.07;2.35;;;27.10;81.70;;;;;;6117483;23;19987;-89
2020/12/30 02:06:04;;;;;;;7.15;2.88;;;27.00;81.90;;;;;;6090011;23;20014;-89
2020/12/30 02:08:28;;;;;;;7.32;2.90;;;27.00;82.20;;;;;;6100973;23;20248;-90
2020/12/30 02:11:06;;;;;;;7.28;2.72;;;27.00;82.10;;;;;;6118665;23;20017;-90
2020/12/30 02:14:22;;;;;;;5.90;3.25;;;26.90;82.60;;;;;;6093215;23;20002;-89
2020/12/30 02:16:52;;;;;;;7.57;3.67;;;27.00;81.90;;;;;;6085667;23;20002;-90
2020/12/30 02:19:20;;;;;;;7.13;3.22;;;27.00;81.90;;;;;;6085611;23;19999;-90
2020/12/30 02:21:47;;;;;;;5.90;3.00;;;27.00;82.70;;;;;;6111767;23;20006;-90
2020/12/30 02:24:29;;;;;;;15.23;3.80;;;27.00;83.00;;;;;;6088068;23;20019;-90
2020/12/30 02:26:56;;;;;;;9.00;3.60;;;26.90;82.60;;;;;;6084224;23;20057;-90
2020/12/30 02:29:23;;;;;;;24.55;14.75;;;26.90;82.40;;;;;;6109933;23;20164;-90
2020/12/30 02:31:50;;;;;;;37.38;18.88;;;26.80;81.30;;;;;;6085716;23;20031;-89
2020/12/30 02:34:17;;;;;;;34.25;18.70;;;26.80;81.80;;;;;;6085195;23;20009;-90
2020/12/30 02:36:45;;;;;;;22.23;11.35;;;26.80;81.40;;;;;;6085170;23;20297;-89
2020/12/30 02:39:12;;;;;;;19.77;9.65;;;26.80;81.30;;;;;;6085987;23;20222;-90
2020/12/30 02:41:51;;;;;;;15.43;9.05;;;26.70;81.70;;;;;;6086098;23;20005;-90
2020/12/30 02:44:20;;;;;;;13.55;5.53;;;26.60;81.40;;;;;;6109868;23;20042;-89
2020/12/30 02:46:46;;;;;;;7.25;3.17;;;26.60;81.70;;;;;;6082584;23;20024;-89
2020/12/30 02:49:15;;;;;;;5.13;2.70;;;26.60;82.50;;;;;;6085243;23;20025;-91
2020/12/30 02:51:46;;;;;;;3.08;1.70;;;26.60;82.60;;;;;;6060381;23;20234;-90
2020/12/30 02:54:16;;;;;;;3.75;2.22;;;26.50;82.10;;;;;;6082641;23;20006;-89
2020/12/30 02:56:46;;;;;;;4.47;2.97;;;26.50;82.10;;;;;;6108683;23;20084;-89
2020/12/30 02:59:12;;;;;;;5.03;3.50;;;26.50;82.20;;;;;;6084078;23;20026;-88
2020/12/30 03:01:46;;;;;;;4.47;2.00;;;26.50;81.50;;;;;;6084889;23;20062;-89
2020/12/30 03:04:15;;;;;;;5.13;2.40;;;26.40;81.70;;;;;;6063439;23;20009;-89
2020/12/30 03:06:45;;;;;;;3.75;1.90;;;26.40;82.30;;;;;;6085071;23;19998;-88
2020/12/30 03:09:11;;;;;;;5.18;1.90;;;26.40;82.10;;;;;;6082511;23;19999;-89
2020/12/30 03:11:38;;;;;;;4.30;3.88;;;26.30;82.20;;;;;;6082690;23;20025;-90
2020/12/30 03:14:05;;;;;;;9.90;7.55;;;26.30;81.80;;;;;;6083201;23;20021;-91
2020/12/30 03:16:31;;;;;;;7.03;5.82;;;26.30;81.60;;;;;;6082775;23;20010;-88
2020/12/30 03:19:07;;;;;;;10.10;6.70;;;26.30;81.70;;;;;;6082933;23;20046;-89
2020/12/30 03:21:33;;;;;;;8.82;5.47;;;26.30;81.50;;;;;;6108869;23;20240;-89
2020/12/30 03:24:09;;;;;;;14.60;9.80;;;26.30;81.50;;;;;;6086863;23;20034;-89
2020/12/30 03:26:44;;;;;;;11.95;6.80;;;26.20;81.60;;;;;;6084923;23;20013;-88
2020/12/30 03:30:34;;;;;;;;;;;;;;;;;;;;;
2020/12/30 03:33:01;;;;;;;11.77;6.60;;;26.20;81.10;;;;;;5958558;24;20012;-89
2020/12/30 03:35:52;;;;;;;10.85;7.78;;;26.10;81.30;;;;;;5975151;24;20068;-89
2020/12/30 03:38:32;;;;;;;6.95;4.53;;;26.10;80.80;;;;;;5954620;24;20088;-90
2020/12/30 03:40:58;;;;;;;5.88;3.42;;;26.00;80.60;;;;;;5928593;23;20220;-88
2020/12/30 03:43:48;;;;;;;3.55;2.58;;;26.10;80.60;;;;;;5998327;24;20059;-90
2020/12/30 03:46:23;;;;;;;5.97;2.20;;;26.00;80.40;;;;;;5979975;24;20008;-88
2020/12/30 03:48:50;;;;;;;5.70;2.13;;;26.00;80.70;;;;;;6079872;23;19998;-90
2020/12/30 03:51:20;;;;;;;3.97;1.95;;;26.00;80.60;;;;;;6109164;23;20002;-89
2020/12/30 03:53:50;;;;;;;3.90;2.20;;;25.90;80.80;;;;;;6083750;23;20146;-89
2020/12/30 03:56:19;;;;;;;3.08;1.92;;;25.90;81.00;;;;;;6084551;23;20002;-87
2020/12/30 03:58:46;;;;;;;2.75;1.50;;;25.80;81.10;;;;;;6084128;23;19999;-90
2020/12/30 04:01:13;;;;;;;4.07;1.85;;;25.80;81.30;;;;;;6109542;23;19990;-89
2020/12/30 04:03:40;;;;;;;5.93;1.42;;;25.70;81.80;;;;;;6108819;23;19994;-88
2020/12/30 04:06:11;;;;;;;4.53;1.73;;;25.70;81.30;;;;;;6107096;23;20006;-90
2020/12/30 04:08:46;;;;;;;2.67;1.75;;;25.70;82.00;;;;;;6108439;23;20008;-88
2020/12/30 04:11:13;;;;;;;2.67;1.63;;;25.50;82.40;;;;;;6108845;23;19994;-89
2020/12/30 04:13:40;;;;;;;5.25;2.85;;;25.30;83.90;;;;;;6084018;23;20014;-87
2020/12/30 04:16:08;;;;;;;7.55;4.97;;;25.20;84.10;;;;;;6107304;23;20045;-91
2020/12/30 04:18:34;;;;;;;5.90;3.05;;;25.30;83.90;;;;;;6108198;23;19995;-89
2020/12/30 04:21:01;;;;;;;8.05;3.40;;;25.30;83.50;;;;;;6106782;23;20010;-88
2020/12/30 04:23:31;;;;;;;7.53;3.97;;;25.40;83.20;;;;;;6106691;23;20025;-88
2020/12/30 04:25:59;;;;;;;7.03;3.20;;;25.40;83.80;;;;;;6106641;23;20002;-90
2020/12/30 04:28:25;;;;;;;5.65;2.38;;;25.40;84.80;;;;;;6106893;23;20037;-89
2020/12/30 04:30:52;;;;;;;3.75;2.35;;;25.30;85.00;;;;;;6082325;23;20164;-89
2020/12/30 04:33:18;;;;;;;6.07;2.47;;;25.30;84.80;;;;;;6108484;23;20042;-89
2020/12/30 04:35:54;;;;;;;4.07;1.58;;;25.30;85.20;;;;;;6109385;23;19998;-89
2020/12/30 04:38:21;;;;;;;2.83;1.65;;;25.30;84.60;;;;;;6084643;23;19998;-88
2020/12/30 04:40:48;;;;;;;3.40;1.60;;;25.30;84.10;;;;;;6109766;23;20043;-90
2020/12/30 04:43:16;;;;;;;4.55;2.03;;;25.40;83.80;;;;;;6110134;23;19997;-88
2020/12/30 04:45:43;;;;;;;3.65;1.75;;;25.40;85.40;;;;;;6087689;23;20002;-89
2020/12/30 04:48:15;;;;;;;3.90;1.48;;;25.30;83.80;;;;;;6088329;23;20010;-91
2020/12/30 04:50:45;;;;;;;2.13;1.50;;;25.30;84.80;;;;;;6086989;23;19998;-89
2020/12/30 04:53:14;;;;;;;3.92;1.73;;;25.30;84.30;;;;;;6110260;23;19998;-89
2020/12/30 04:55:41;;;;;;;2.40;1.77;;;25.30;84.70;;;;;;6084409;23;20003;-91
2020/12/30 04:58:09;;;;;;;4.13;1.42;;;25.30;84.30;;;;;;6108092;23;20281;-92
2020/12/30 05:00:38;;;;;;;1.70;1.25;;;25.30;83.80;;;;;;6081585;23;20005;-89
2020/12/30 05:03:15;;;;;;;2.15;1.30;;;25.30;83.70;;;;;;6107790;23;20046;-89
2020/12/30 05:05:45;;;;;;;1.98;1.40;;;25.30;83.70;;;;;;6082014;23;20287;-91
2020/12/30 05:08:13;;;;;;;1.63;1.20;;;25.30;83.40;;;;;;6082475;23;20047;-90
2020/12/30 05:10:45;;;;;;;1.60;1.30;;;25.30;82.90;;;;;;6081774;23;20014;-90
2020/12/30 05:13:32;;;;;;;1.87;1.10;;;25.30;83.50;;;;;;6108157;23;20045;-90
2020/12/30 05:16:01;;;;;;;2.70;1.20;;;25.30;82.90;;;;;;6107410;23;20053;-92
2020/12/30 05:18:28;;;;;;;2.28;1.33;;;25.30;82.70;;;;;;6082538;23;20065;-90
2020/12/30 05:20:55;;;;;;;2.60;1.48;;;25.10;83.80;;;;;;6080969;23;20018;-93
2020/12/30 05:23:23;;;;;;;2.30;1.45;;;25.10;83.40;;;;;;6107735;23;20010;-92
2020/12/30 05:25:53;;;;;;;1.77;1.23;;;24.90;83.90;;;;;;6081967;23;20002;-91
2020/12/30 05:28:23;;;;;;;3.28;1.50;;;24.90;83.90;;;;;;6082067;23;20069;-90
2020/12/30 05:30:50;;;;;;;3.38;1.15;;;24.90;83.90;;;;;;6083027;23;20006;-91
2020/12/30 05:33:17;;;;;;;2.50;1.20;;;25.00;83.70;;;;;;6083123;23;20002;-91
2020/12/30 05:35:44;;;;;;;2.30;1.20;;;24.90;84.80;;;;;;6082877;23;20002;-90
2020/12/30 05:38:10;;;;;;;3.63;1.50;;;24.90;83.40;;;;;;6082945;23;19995;-93
2020/12/30 05:40:37;;;;;;;1.70;1.40;;;24.90;83.80;;;;;;6082773;23;20002;-88
2020/12/30 05:43:12;;;;;;;6.45;1.50;;;24.80;83.60;;;;;;6084132;23;19998;-93
2020/12/30 05:45:50;;;;;;;2.47;1.92;;;24.80;84.00;;;;;;6083844;23;20002;-87
2020/12/30 05:48:18;;;;;;;1.90;1.30;;;24.80;83.20;;;;;;6083711;23;20018;-88
2020/12/30 05:50:51;;;;;;;2.65;1.50;;;24.80;83.70;;;;;;6109054;23;20041;-90
2020/12/30 05:53:19;;;;;;;3.25;1.40;;;24.90;83.70;;;;;;6109370;23;19994;-89
2020/12/30 05:55:49;;;;;;;1.83;1.40;;;24.90;83.70;;;;;;6083453;23;20022;-89
2020/12/30 05:58:17;;;;;;;2.28;1.10;;;24.80;84.70;;;;;;6109516;23;19998;-90
2020/12/30 06:00:45;;;;;;;1.02;0.93;;;24.80;84.30;;;;;;6083904;23;19995;-90
2020/12/30 06:03:15;;;;;;;2.17;1.50;;;24.80;84.80;;;;;;6083881;23;20026;-93
2020/12/30 06:05:42;;;;;;;1.92;1.27;;;24.80;85.00;;;;;;6083809;23;20025;-91
2020/12/30 06:08:09;;;;;;;1.40;1.30;;;24.70;85.10;;;;;;6083482;23;20002;-89
2020/12/30 06:10:42;;;;;;;5.50;1.75;;;24.70;85.40;;;;;;6083663;23;19999;-90
2020/12/30 06:13:10;;;;;;;3.03;1.55;;;24.70;85.80;;;;;;6084063;23;20148;-91
2020/12/30 06:15:36;;;;;;;4.80;1.90;;;24.60;85.20;;;;;;6083336;23;19999;-90
2020/12/30 06:18:07;;;;;;;2.28;1.13;;;24.70;85.90;;;;;;6083380;23;19999;-89
2020/12/30 06:20:39;;;;;;;3.10;1.35;;;24.60;86.00;;;;;;6083421;23;20231;-92
2020/12/30 06:23:11;;;;;;;2.78;1.35;;;24.60;86.30;;;;;;6082687;23;19998;-93
2020/12/30 06:25:41;;;;;;;2.53;1.10;;;24.60;85.20;;;;;;6083938;23;20003;-95
2020/12/30 06:28:19;;;;;;;2.38;1.52;;;24.60;85.70;;;;;;6083815;23;20002;-94
2020/12/30 06:30:51;;;;;;;4.00;1.25;;;24.60;85.00;;;;;;6080238;23;20002;-91
2020/12/30 06:33:22;;;;;;;2.92;1.70;;;24.60;85.20;;;;;;6083766;23;20069;-90
2020/12/30 06:35:55;;;;;;;1.85;1.30;;;24.60;86.00;;;;;;6107998;23;19998;-90
2020/12/30 06:38:30;;;;;;;2.85;1.45;;;24.60;86.40;;;;;;6083574;23;19998;-91
2020/12/30 06:40:58;;;;;;;2.83;1.60;;;24.60;86.10;;;;;;6082849;23;20022;-91
2020/12/30 06:44:06;;;;;;;;;;;;;;;;;;;;;
2020/12/30 06:46:33;;;;;;;3.95;1.50;;;24.60;85.50;;;;;;6109949;23;20009;-90
2020/12/30 06:49:04;;;;;;;2.15;1.35;;;24.60;86.50;;;;;;6082832;23;20005;-91
2020/12/30 06:51:43;;;;;;;3.07;1.70;;;24.50;86.90;;;;;;6082701;23;20010;-91
2020/12/30 06:54:09;;;;;;;1.60;1.35;;;24.60;87.80;;;;;;6085558;23;20458;-88
2020/12/30 06:56:44;;;;;;;3.90;1.40;;;24.50;87.60;;;;;;6100004;23;20057;-91
2020/12/30 06:59:31;;;;;;;2.58;1.67;;;24.50;86.50;;;;;;6125094;23;20088;-91
2020/12/30 07:01:59;;;;;;;3.17;1.83;;;24.40;86.80;;;;;;6100858;23;19997;-92
2020/12/30 07:04:27;;;;;;;1.88;1.45;;;24.40;88.30;;;;;;6101531;23;19999;-92
2020/12/30 07:06:55;;;;;;;4.30;2.40;;;24.30;88.50;;;;;;6100145;23;20275;-92
2020/12/30 07:09:38;;;;;;;4.43;2.15;;;24.10;90.10;;;;;;6100755;23;19990;-89
2020/12/30 07:12:09;;;;;;;3.45;1.92;;;23.90;90.90;;;;;;6125479;23;20002;-90
2020/12/30 07:14:37;;;;;;;2.78;1.63;;;23.90;90.20;;;;;;6096713;23;20009;-92
2020/12/30 07:17:08;;;;;;;4.38;1.98;;;23.90;90.80;;;;;;6090676;23;20010;-90
2020/12/30 07:19:42;;;;;;;2.67;2.00;;;24.00;90.40;;;;;;6083315;23;20034;-91
2020/12/30 07:22:13;;;;;;;4.88;2.00;;;24.20;90.10;;;;;;6108250;23;20014;-90
2020/12/30 07:24:43;;;;;;;3.25;1.92;;;24.20;90.30;;;;;;6083460;23;20294;-89
2020/12/30 07:27:13;;;;;;;5.55;1.90;;;24.10;90.50;;;;;;6108327;23;20008;-90
2020/12/30 07:29:45;;;;;;;2.58;1.30;;;24.10;90.40;;;;;;6083144;23;20021;-90
2020/12/30 07:32:13;;;;;;;4.65;1.67;;;24.00;90.90;;;;;;6108657;23;19998;-91
2020/12/30 07:34:47;;;;;;;3.42;1.80;;;24.00;90.70;;;;;;6082823;23;20046;-91
2020/12/30 07:37:15;;;;;;;2.60;1.70;;;24.10;90.00;;;;;;6082940;23;20072;-90
2020/12/30 07:39:44;;;;;;;4.18;1.75;;;24.10;90.30;;;;;;6083407;23;19995;-92
2020/12/30 07:42:19;;;;;;;2.30;1.70;;;24.20;90.40;;;;;;6082899;23;20010;-90
2020/12/30 07:44:57;;;;;;;3.63;1.90;;;24.20;90.20;;;;;;6083366;23;20041;-91
2020/12/30 07:47:26;;;;;;;2.53;1.60;;;24.20;90.80;;;;;;6082699;23;20187;-91
2020/12/30 07:50:03;;;;;;;6.20;1.75;;;24.10;90.90;;;;;;6108680;23;20010;-92
2020/12/30 07:52:30;;;;;;;1.98;1.70;;;24.10;90.80;;;;;;6083003;23;20282;-92
2020/12/30 07:54:57;;;;;;;3.13;1.83;;;24.10;90.20;;;;;;6082676;23;19994;-91
2020/12/30 07:57:24;;;;;;;2.33;1.50;;;24.20;90.60;;;;;;6083287;23;20293;-90
2020/12/30 07:59:51;;;;;;;1.83;1.50;;;24.20;90.60;;;;;;6108009;23;19986;-93
2020/12/30 08:02:19;;;;;;;2.65;1.85;;;24.20;90.40;;;;;;6083634;23;20002;-95
2020/12/30 08:04:58;;;;;;;3.05;1.70;;;24.20;90.60;;;;;;6082751;23;20275;-94
2020/12/30 08:07:28;;;;;;;2.38;1.67;;;24.10;91.00;;;;;;6082826;23;19998;-94
2020/12/30 08:09:54;;;;;;;3.10;1.98;;;24.10;90.10;;;;;;6082530;23;20187;-94
2020/12/30 08:12:28;;;;;;;3.13;2.13;;;24.20;90.80;;;;;;6108620;23;20002;-93
2020/12/30 08:15:12;;;;;;;4.43;2.00;;;24.10;91.40;;;;;;6048598;23;20023;-92
2020/12/30 08:17:38;;;;;;;3.95;2.33;;;24.10;91.30;;;;;;6048755;23;20004;-91
2020/12/30 08:20:08;;;;;;;5.75;2.10;;;24.00;91.50;;;;;;6048296;23;20236;-92
2020/12/30 08:22:34;;;;;;;3.53;2.17;;;23.90;91.50;;;;;;6024900;23;20003;-92
2020/12/30 08:25:01;;;;;;;5.65;2.10;;;23.90;91.80;;;;;;6047758;23;20027;-92
2020/12/30 08:27:30;;;;;;;3.80;1.95;;;23.80;91.60;;;;;;6048997;23;20161;-91
2020/12/30 08:29:58;;;;;;;5.68;1.80;;;23.80;91.90;;;;;;6024479;23;20054;-91
2020/12/30 08:32:33;;;;;;;3.70;1.73;;;23.70;91.50;;;;;;6047800;23;20019;-89
2020/12/30 08:35:21;;;;;;;3.67;1.90;;;23.70;91.80;;;;;;6048638;23;20280;-90
2020/12/30 08:38:20;;;;;;;2.30;1.55;;;23.70;91.80;;;;;;6047977;23;20006;-92
2020/12/30 08:40:54;;;;;;;2.67;2.00;;;23.60;92.00;;;;;;6024061;23;19999;-91
2020/12/30 08:43:44;;;;;;;2.03;1.73;;;23.60;91.90;;;;;;6024894;23;20003;-90
2020/12/30 08:46:24;;;;;;;2.28;1.73;;;23.60;92.00;;;;;;6079929;23;20005;-92
2020/12/30 08:48:52;;;;;;;3.38;1.77;;;23.60;91.80;;;;;;6082324;23;20018;-93
2020/12/30 08:51:36;;;;;;;4.07;1.75;;;23.60;91.60;;;;;;6059876;23;20029;-89
2020/12/30 08:54:14;;;;;;;3.22;1.95;;;23.50;91.80;;;;;;6083519;23;20034;-89
2020/12/30 08:56:43;;;;;;;2.00;1.67;;;23.60;92.00;;;;;;6107737;23;20006;-90
2020/12/30 08:59:09;;;;;;;5.88;2.20;;;23.60;91.70;;;;;;6082683;23;20210;-89
2020/12/30 09:01:36;;;;;;;2.95;1.73;;;23.60;91.70;;;;;;6081735;23;20006;-89
2020/12/30 09:04:10;;;;;;;2.95;1.90;;;23.60;91.70;;;;;;6082170;23;20001;-89
2020/12/30 09:06:38;;;;;;;3.42;1.92;;;23.60;91.70;;;;;;6084886;23;20007;-89
2020/12/30 09:09:13;;;;;;;6.78;3.28;;;23.60;92.10;;;;;;6084130;23;19998;-86
2020/12/30 09:11:46;;;;;;;5.45;2.45;;;23.50;91.80;;;;;;6110093;23;20013;-90
2020/12/30 09:14:15;;;;;;;3.55;2.10;;;23.40;91.80;;;;;;6084159;23;19994;-90
2020/12/30 09:16:54;;;;;;;4.15;2.33;;;23.40;92.20;;;;;;6109484;23;20010;-91
2020/12/30 09:19:24;;;;;;;5.43;2.13;;;23.40;91.80;;;;;;6084897;23;20026;-92
2020/12/30 09:21:52;;;;;;;3.30;1.80;;;23.40;92.00;;;;;;6079929;23;20079;-90
2020/12/30 09:28:34;;;;;;;2.42;1.77;;;23.40;91.90;;;;;;6005656;23;20229;-88
2020/12/30 09:33:47;;;;;;;4.63;1.65;;;23.40;91.80;;;;;;6084183;23;20019;-90
2020/12/30 09:36:14;;;;;;;1.65;1.45;;;23.40;91.90;;;;;;6057021;23;20010;-90
2020/12/30 09:38:44;;;;;;;2.83;1.88;;;23.40;91.60;;;;;;6058943;23;20076;-90
2020/12/30 09:41:23;;;;;;;3.50;1.75;;;23.40;91.70;;;;;;6060404;23;20006;-91
2020/12/30 09:43:50;;;;;;;1.65;1.55;;;23.40;91.70;;;;;;6062687;23;19995;-88
2020/12/30 09:46:26;;;;;;;1.88;1.52;;;23.40;92.20;;;;;;6062491;23;20022;-88
2020/12/30 09:49:01;;;;;;;3.47;1.75;;;23.40;91.80;;;;;;6063892;23;20075;-87
2020/12/30 09:52:39;;;;;;;2.33;1.60;;;23.30;91.70;;;;;;6041117;23;20025;-88
2020/12/30 09:55:13;;;;;;;1.92;1.52;;;23.40;91.60;;;;;;6089521;23;20014;-88
2020/12/30 09:57:50;;;;;;;2.83;1.63;;;23.40;91.30;;;;;;6002348;23;20050;-86
2020/12/30 10:00:20;;;;;;;10.57;5.47;;;23.30;91.70;;;;;;6050375;23;20059;-89
2020/12/30 10:02:49;;;;;;;79.68;30.67;;;23.40;91.40;;;;;;6008957;23;20052;-89
2020/12/30 10:05:29;;;;;;;49.03;18.27;;;23.40;92.00;;;;;;5997326;23;20020;-90
2020/12/30 10:08:02;;;;;;;7.05;3.28;;;23.40;91.60;;;;;;6023639;23;20008;-92
2020/12/30 10:10:29;;;;;;;15.10;7.57;;;23.30;92.00;;;;;;6023223;23;20054;-92
2020/12/30 10:13:27;;;;;;;12.63;4.82;;;23.20;92.30;;;;;;6023346;23;20011;-93
2020/12/30 10:15:55;;;;;;;9.63;4.13;;;23.20;92.30;;;;;;6024986;23;20004;-88
2020/12/30 10:18:22;;;;;;;11.73;4.57;;;23.20;92.30;;;;;;6023355;23;20031;-90
2020/12/30 10:20:51;;;;;;;6.55;3.00;;;23.20;92.00;;;;;;6023091;23;19999;-92
2020/12/30 10:23:19;;;;;;;7.05;3.03;;;23.20;92.10;;;;;;6022783;23;20071;-90
2020/12/30 10:25:49;;;;;;;3.55;2.38;;;23.20;91.90;;;;;;6025255;23;20288;-95
2020/12/30 10:28:25;;;;;;;2.45;1.90;;;23.20;91.90;;;;;;6024582;23;20003;-92
2020/12/30 10:30:51;;;;;;;5.88;2.45;;;23.10;92.10;;;;;;6026239;23;20004;-91
2020/12/30 10:33:21;;;;;;;2.92;1.85;;;23.10;91.70;;;;;;6027156;23;20051;-90
2020/12/30 10:35:48;;;;;;;3.38;2.42;;;23.10;91.90;;;;;;6025531;23;20292;-90
2020/12/30 10:38:14;;;;;;;6.70;2.10;;;23.20;91.90;;;;;;6025892;23;20191;-94
2020/12/30 10:40:41;;;;;;;3.88;2.05;;;23.20;91.60;;;;;;6048283;23;20003;-92
2020/12/30 10:43:15;;;;;;;6.72;2.00;;;23.10;91.80;;;;;;6051259;23;19995;-91
2020/12/30 10:45:42;;;;;;;4.00;2.17;;;23.10;91.70;;;;;;6051119;23;20019;-92
2020/12/30 10:48:09;;;;;;;4.05;2.40;;;23.10;91.80;;;;;;6050873;23;19998;-90
2020/12/30 10:50:35;;;;;;;5.10;3.50;;;23.10;91.90;;;;;;6052929;23;20316;-93
2020/12/30 10:53:02;;;;;;;14.63;10.13;;;23.10;91.60;;;;;;6051180;23;19999;-88
2020/12/30 10:55:29;;;;;;;12.95;7.00;;;23.10;91.70;;;;;;6050216;23;20051;-88
2020/12/30 11:03:09;;;;;;;10.45;5.13;;;23.00;92.00;;;;;;6057306;23;20023;-90
2020/12/30 11:05:41;;;;;;;9.50;4.97;;;23.00;92.70;;;;;;6058674;23;20003;-89
2020/12/30 11:08:11;;;;;;;8.10;3.80;;;23.00;92.70;;;;;;6035066;23;20240;-85
2020/12/30 11:11:02;;;;;;;7.88;4.60;;;23.00;92.10;;;;;;6035966;23;20011;-89
2020/12/30 11:13:35;;;;;;;7.60;4.40;;;23.00;92.70;;;;;;6084636;23;20074;-85
2020/12/30 11:16:42;;;;;;;9.68;4.07;;;23.00;93.00;;;;;;6038693;23;20007;-95
2020/12/30 11:22:33;;;;;;;7.57;3.53;;;23.10;92.70;;;;;;6032012;23;20092;-86
2020/12/30 11:25:10;;;;;;;6.18;3.40;;;23.00;92.50;;;;;;5978821;23;20023;-90
2020/12/30 11:28:09;;;;;;;9.60;3.47;;;23.10;92.90;;;;;;6005673;23;19998;-95
2020/12/30 11:30:58;;;;;;;5.32;2.90;;;23.20;92.60;;;;;;6024312;23;20011;-91
2020/12/30 11:33:58;;;;;;;5.63;2.80;;;23.20;92.40;;;;;;6028657;23;20000;-95
2020/12/30 11:36:46;;;;;;;11.20;3.55;;;23.20;92.70;;;;;;6029396;23;20073;-94
2020/12/30 11:39:12;;;;;;;5.00;2.50;;;23.30;92.30;;;;;;6052598;23;20019;-91
2020/12/30 11:41:43;;;;;;;11.18;3.35;;;23.30;92.40;;;;;;6055252;23;20007;-88
2020/12/30 11:47:54;;;;;;;7.85;2.03;;;23.30;91.90;;;;;;6061489;23;19998;-85
2020/12/30 11:50:34;;;;;;;3.38;1.95;;;23.30;91.70;;;;;;6057302;23;20225;-95
2020/12/30 11:53:02;;;;;;;3.28;1.98;;;23.40;92.00;;;;;;6029466;23;20335;-92
2020/12/30 11:55:30;;;;;;;4.60;2.00;;;23.40;91.30;;;;;;6026529;23;20327;-88
2020/12/30 11:57:56;;;;;;;3.75;2.30;;;23.50;91.70;;;;;;6051317;23;20003;-91
2020/12/30 12:00:23;;;;;;;12.07;3.15;;;23.50;91.00;;;;;;6051714;23;19999;-95
2020/12/30 12:02:51;;;;;;;3.88;2.28;;;23.50;90.70;;;;;;6048327;23;19999;-95
2020/12/30 12:05:20;;;;;;;6.00;2.28;;;23.60;90.30;;;;;;6027190;23;20023;-90
2020/12/30 12:07:48;;;;;;;7.80;3.50;;;23.80;91.40;;;;;;6053242;23;20007;-91
2020/12/30 12:10:15;;;;;;;11.70;2.50;;;24.00;91.00;;;;;;6054176;23;20071;-91
2020/12/30 12:12:55;;;;;;;4.47;2.30;;;24.10;90.10;;;;;;6055318;23;20026;-91
2020/12/30 12:15:21;;;;;;;7.68;3.25;;;24.20;89.00;;;;;;6033609;23;20010;-91
2020/12/30 12:17:48;;;;;;;8.00;3.00;;;24.30;88.30;;;;;;6050706;23;20070;-91
2020/12/30 12:20:15;;;;;;;7.28;2.80;;;24.40;88.80;;;;;;6050546;23;19999;-93
2020/12/30 12:22:47;;;;;;;5.65;2.70;;;24.40;88.00;;;;;;6053498;23;20298;-90
2020/12/30 12:25:27;;;;;;;5.55;2.70;;;24.40;88.00;;;;;;6028649;23;20003;-95
2020/12/30 12:28:03;;;;;;;4.07;2.20;;;24.40;88.20;;;;;;5983674;23;20734;-96
2020/12/30 12:30:30;;;;;;;5.75;3.03;;;24.50;88.90;;;;;;6059360;23;20041;-92
2020/12/30 12:32:57;;;;;;;6.85;2.55;;;24.50;89.50;;;;;;6054912;23;20002;-90
2020/12/30 12:35:23;;;;;;;7.85;2.80;;;24.50;89.50;;;;;;6057007;23;20070;-90
2020/12/30 12:38:27;;;;;;;;;;;;;;;;;;;;;
2020/12/30 12:40:55;;;;;;;11.38;4.05;;;24.60;90.40;;;;;;6028449;23;20008;-96
2020/12/30 12:43:24;;;;;;;6.03;2.90;;;24.60;90.30;;;;;;6031440;23;19991;-96
2020/12/30 12:46:40;;;;;;;6.07;2.88;;;24.70;90.40;;;;;;6033571;23;20011;-96
2020/12/30 12:49:35;;;;;;;4.25;2.40;;;24.80;90.40;;;;;;6059658;23;20004;-96
2020/12/30 12:53:05;;;;;;;2.95;2.10;;;24.90;90.00;;;;;;6033262;23;20035;-89
2020/12/30 12:55:31;;;;;;;3.75;2.67;;;25.00;89.80;;;;;;5970245;24;20017;-92
2020/12/30 12:58:34;;;;;;;4.28;2.55;;;25.20;90.10;;;;;;5969216;24;20067;-93
2020/12/30 13:01:01;;;;;;;5.03;2.40;;;25.50;88.90;;;;;;5966460;24;20270;-90
2020/12/30 13:03:28;;;;;;;4.85;2.33;;;25.70;87.50;;;;;;5964715;24;20293;-92
2020/12/30 13:05:54;;;;;;;5.25;3.17;;;25.90;88.00;;;;;;5967945;24;20067;-91
2020/12/30 13:08:24;;;;;;;6.13;2.40;;;26.10;87.00;;;;;;5966594;24;20012;-94
2020/12/30 13:10:50;;;;;;;4.10;2.63;;;26.30;86.40;;;;;;5964521;24;20053;-92
2020/12/30 13:13:23;;;;;;;2.85;2.25;;;26.30;85.50;;;;;;5971275;24;20016;-93
2020/12/30 13:15:52;;;;;;;4.95;2.00;;;26.40;85.40;;;;;;5939961;24;20021;-91
2020/12/30 13:18:19;;;;;;;2.95;1.88;;;26.60;85.00;;;;;;5962937;24;19993;-92
2020/12/30 13:20:46;;;;;;;2.85;1.88;;;26.70;84.20;;;;;;5963026;24;20096;-93
2020/12/30 13:23:12;;;;;;;3.55;2.25;;;26.80;83.00;;;;;;5963598;24;20001;-93
2020/12/30 13:25:42;;;;;;;7.60;4.78;;;26.90;83.00;;;;;;5970170;24;20196;-92
2020/12/30 13:28:08;;;;;;;2.60;2.10;;;27.10;83.00;;;;;;5969293;24;20031;-95
2020/12/30 13:30:35;;;;;;;5.85;2.03;;;27.20;82.70;;;;;;5969608;24;20032;-93
2020/12/30 13:33:02;;;;;;;5.38;4.03;;;27.40;81.40;;;;;;5968673;24;20147;-91
2020/12/30 13:35:31;;;;;;;6.15;5.18;;;27.60;81.20;;;;;;5991615;24;20034;-93
2020/12/30 13:38:05;;;;;;;4.05;2.25;;;27.90;79.70;;;;;;5968196;24;20004;-93
2020/12/30 13:41:17;;;;;;;7.50;3.30;;;28.10;76.50;;;;;;5966836;24;20016;-95
2020/12/30 13:43:47;;;;;;;6.22;2.50;;;28.40;76.50;;;;;;5969849;24;19996;-92
2020/12/30 13:46:25;;;;;;;3.60;2.00;;;28.80;76.20;;;;;;5994344;24;20367;-92